Time;durP1;ratioP1;P1;durP2;ratioP2;P2;SDS_P1;SDS_P2;PMS_P1;PMS_P2;Temp;Humidity;BMP_temperature;BMP_pressure;BME280_temperature;BME280_humidity;BME280_pressure;Samples;Min_cycle;Max_cycle;Signal;HPM_P1;HPM_P2
2023/06/08 00:01:25;;;;;;;17.30;9.10;;;;;;;13.83;67.84;101925.50;4998801;28;20507;-73
2023/06/08 00:03:51;;;;;;;17.40;8.85;;;;;;;14.14;67.66;101929.38;4999345;28;20040;-72
2023/06/08 00:06:16;;;;;;;16.50;7.82;;;;;;;14.51;66.65;101916.09;5016575;28;20029;-72
2023/06/08 00:08:43;;;;;;;20.55;10.07;;;;;;;13.68;68.16;101923.56;5022824;28;20076;-72
2023/06/08 00:11:08;;;;;;;24.20;10.10;;;;;;;13.44;68.65;101920.22;5014356;28;20021;-73
2023/06/08 00:13:34;;;;;;;19.45;9.57;;;;;;;13.64;68.38;101917.50;5008339;28;20586;-72
2023/06/08 00:16:02;;;;;;;20.85;8.63;;;;;;;13.98;66.49;101909.75;4998916;28;20057;-73
2023/06/08 00:18:30;;;;;;;17.17;8.80;;;;;;;14.09;66.75;101914.59;4998971;28;20026;-73
2023/06/08 00:20:56;;;;;;;24.40;9.20;;;;;;;14.27;65.96;101915.47;4999714;28;20080;-72
2023/06/08 00:23:22;;;;;;;19.33;9.45;;;;;;;13.88;66.76;101914.63;5011824;28;20475;-72
2023/06/08 00:25:48;;;;;;;19.30;9.10;;;;;;;13.30;68.98;101919.00;5005076;28;20036;-72
2023/06/08 00:28:13;;;;;;;27.00;10.43;;;;;;;14.05;65.71;101913.00;5015472;28;20030;-74
2023/06/08 00:30:38;;;;;;;19.55;9.27;;;;;;;13.63;66.31;101909.59;5001415;28;20026;-72
2023/06/08 00:33:04;;;;;;;21.30;9.43;;;;;;;13.32;67.86;101905.63;4994926;28;20041;-71
2023/06/08 00:35:30;;;;;;;20.25;9.10;;;;;;;13.51;67.86;101911.03;5014240;28;20117;-73
2023/06/08 00:37:56;;;;;;;21.08;9.38;;;;;;;14.38;65.23;101912.31;4989422;28;20055;-72
2023/06/08 00:40:21;;;;;;;19.65;8.60;;;;;;;13.92;65.70;101897.59;5033999;28;20100;-72
2023/06/08 00:42:46;;;;;;;17.05;8.38;;;;;;;14.00;65.19;101908.72;5017757;28;20137;-73
2023/06/08 00:45:12;;;;;;;17.30;8.80;;;;;;;14.42;63.67;101912.09;5017978;28;20036;-73
2023/06/08 00:47:37;;;;;;;17.90;9.27;;;;;;;13.60;66.73;101915.94;5028924;28;20030;-74
2023/06/08 00:50:07;;;;;;;19.33;8.63;;;;;;;14.07;66.10;101913.78;4998757;28;20029;-72
2023/06/08 00:52:32;;;;;;;18.92;10.18;;;;;;;13.54;66.65;101910.88;5000249;28;20030;-72
2023/06/08 00:55:00;;;;;;;24.73;8.85;;;;;;;13.12;69.56;101916.19;4997913;28;20079;-72
2023/06/08 00:57:28;;;;;;;21.85;9.15;;;;;;;13.85;65.54;101906.81;5004176;28;20030;-72
2023/06/08 00:59:55;;;;;;;18.83;9.02;;;;;;;14.21;65.33;101914.00;5009204;28;20390;-73
2023/06/08 01:02:23;;;;;;;18.23;9.48;;;;;;;13.81;66.54;101907.88;4985130;28;20512;-74
2023/06/08 01:04:50;;;;;;;18.95;9.23;;;;;;;13.28;67.44;101904.91;5017518;28;20068;-72
2023/06/08 01:07:28;;;;;;;22.77;10.60;;;;;;;12.68;70.02;101913.66;5001038;28;20038;-74
2023/06/08 01:09:57;;;;;;;20.98;10.73;;;;;;;12.56;69.74;101906.22;5014659;28;20026;-73
2023/06/08 01:12:30;;;;;;;26.95;10.43;;;;;;;12.69;69.92;101910.91;5025500;28;20022;-74
2023/06/08 01:15:13;;;;;;;27.33;10.73;;;;;;;12.38;70.32;101908.66;5035647;28;20382;-74
2023/06/08 01:17:41;;;;;;;19.50;9.20;;;;;;;13.25;68.95;101915.66;5001172;28;20021;-72
2023/06/08 01:20:32;;;;;;;19.95;9.80;;;;;;;13.30;66.98;101911.03;5017837;28;20028;-72
2023/06/08 01:22:57;;;;;;;21.17;10.00;;;;;;;12.82;68.71;101913.94;5018640;28;20116;-72
2023/06/08 01:25:32;;;;;;;19.23;10.45;;;;;;;12.57;69.70;101908.78;5018455;28;20107;-72
2023/06/08 01:28:12;;;;;;;20.65;9.85;;;;;;;12.44;70.34;101903.09;5015218;28;20022;-73
2023/06/08 01:30:39;;;;;;;20.73;9.40;;;;;;;13.31;67.64;101902.13;4999300;28;20498;-72
2023/06/08 01:33:05;;;;;;;15.10;9.27;;;;;;;13.33;66.97;101886.97;4998302;28;20037;-73
2023/06/08 01:35:30;;;;;;;12.65;7.97;;;;;;;13.68;65.76;101897.81;4997747;28;20487;-74
2023/06/08 01:37:58;;;;;;;18.13;8.55;;;;;;;13.54;66.99;101895.78;4997763;28;20042;-72
2023/06/08 01:40:28;;;;;;;19.13;9.77;;;;;;;13.15;67.89;101898.41;4997963;28;20113;-72
2023/06/08 01:42:54;;;;;;;18.30;10.63;;;;;;;12.72;68.21;101888.69;5014199;28;20030;-72
2023/06/08 01:45:30;;;;;;;17.15;9.45;;;;;;;12.91;68.06;101901.19;5017848;28;20024;-72
2023/06/08 01:48:02;;;;;;;20.33;8.52;;;;;;;13.10;67.16;101898.63;5017230;28;20068;-73
2023/06/08 01:50:29;;;;;;;21.60;9.98;;;;;;;12.55;69.11;101902.66;5016975;28;20489;-73
2023/06/08 01:52:55;;;;;;;17.35;8.48;;;;;;;13.28;66.95;101896.94;5017049;28;20108;-72
2023/06/08 01:55:22;;;;;;;15.38;9.30;;;;;;;12.91;68.26;101901.19;5017249;28;20025;-73
2023/06/08 01:57:48;;;;;;;14.98;10.27;;;;;;;12.30;69.78;101911.66;5017703;28;20025;-73
2023/06/08 02:00:15;;;;;;;16.60;9.70;;;;;;;12.40;69.90;101898.84;5008884;28;20451;-72
2023/06/08 02:02:41;;;;;;;27.35;11.68;;;;;;;12.16;70.17;101909.53;4987512;28;20437;-72
2023/06/08 02:05:08;;;;;;;23.67;11.68;;;;;;;12.37;70.95;101898.97;4993242;28;20030;-71
2023/06/08 02:07:34;;;;;;;21.60;11.48;;;;;;;12.37;69.97;101902.50;5005186;28;20536;-72
2023/06/08 02:09:59;;;;;;;28.20;12.63;;;;;;;12.73;69.53;101898.41;5016378;28;20029;-72
2023/06/08 02:12:25;;;;;;;24.48;11.95;;;;;;;12.88;67.94;101896.00;5016725;28;20017;-72
2023/06/08 02:14:50;;;;;;;20.50;10.88;;;;;;;13.05;68.06;101887.31;5000018;28;20467;-71
2023/06/08 02:17:18;;;;;;;23.52;12.13;;;;;;;12.04;70.91;101899.41;5016159;28;20079;-71
2023/06/08 02:19:44;;;;;;;24.85;12.90;;;;;;;11.11;74.42;101902.78;5016697;28;20025;-72
2023/06/08 02:22:10;;;;;;;30.42;14.18;;;;;;;11.09;75.11;101900.19;5015908;28;20021;-72
2023/06/08 02:24:35;;;;;;;23.50;13.60;;;;;;;11.10;76.14;101906.34;4989039;28;20466;-72
2023/06/08 02:27:02;;;;;;;28.83;13.82;;;;;;;11.04;76.53;101918.91;5014494;28;20030;-71
2023/06/08 02:29:27;;;;;;;28.98;12.18;;;;;;;11.23;75.71;101910.28;4981417;28;20033;-73
2023/06/08 02:31:53;;;;;;;22.25;11.70;;;;;;;11.83;72.72;101915.19;4980863;28;20030;-72
2023/06/08 02:34:18;;;;;;;24.23;12.82;;;;;;;11.58;74.92;101912.59;4996972;28;20032;-72
2023/06/08 02:36:43;;;;;;;20.92;12.20;;;;;;;12.18;71.87;101904.19;4996726;28;20396;-72
2023/06/08 02:39:09;;;;;;;21.27;11.90;;;;;;;11.84;72.57;101908.09;4997221;28;20046;-72
2023/06/08 02:41:35;;;;;;;22.80;12.32;;;;;;;12.29;71.37;101904.59;4997160;28;20364;-72
2023/06/08 02:44:00;;;;;;;21.90;12.13;;;;;;;12.29;70.90;101909.03;4997476;28;20084;-72
2023/06/08 02:46:25;;;;;;;18.27;11.57;;;;;;;11.65;73.70;101909.63;4997555;28;20026;-74
2023/06/08 02:48:51;;;;;;;16.48;11.23;;;;;;;13.09;68.93;101903.03;5029154;28;20029;-74
2023/06/08 02:51:16;;;;;;;22.48;12.75;;;;;;;12.39;70.41;101921.00;5027980;28;20029;-72
2023/06/08 02:53:42;;;;;;;23.98;13.70;;;;;;;12.22;71.22;101903.97;4999280;28;20451;-72
2023/06/08 02:56:07;;;;;;;20.73;10.98;;;;;;;12.60;71.36;101897.19;5015836;28;20485;-72
2023/06/08 02:58:33;;;;;;;22.80;11.75;;;;;;;12.86;69.83;101903.19;5031751;28;20022;-72
2023/06/08 03:01:00;;;;;;;21.65;12.32;;;;;;;13.17;67.90;101893.88;5024156;28;20030;-72
2023/06/08 03:03:29;;;;;;;25.42;12.73;;;;;;;12.83;69.46;101905.03;5014114;28;20022;-71
2023/06/08 03:05:58;;;;;;;23.00;12.55;;;;;;;12.69;69.94;101892.34;4985709;28;20053;-74
2023/06/08 03:08:27;;;;;;;21.88;13.32;;;;;;;12.66;69.65;101902.25;5009153;28;20056;-72
2023/06/08 03:10:52;;;;;;;23.58;13.88;;;;;;;12.65;70.19;101903.16;4999604;28;20036;-72
2023/06/08 03:13:17;;;;;;;27.55;13.82;;;;;;;12.41;70.41;101892.59;5012529;28;20033;-72
2023/06/08 03:15:44;;;;;;;26.33;14.48;;;;;;;12.62;70.51;101892.69;5016070;28;20132;-73
2023/06/08 03:18:10;;;;;;;25.80;14.15;;;;;;;12.33;70.59;101895.59;5026846;28;20033;-72
2023/06/08 03:20:35;;;;;;;31.65;13.02;;;;;;;13.01;69.14;101885.72;5023925;28;20022;-72
2023/06/08 03:23:01;;;;;;;24.92;14.32;;;;;;;12.46;70.77;101892.44;5032874;28;20446;-72
2023/06/08 03:25:26;;;;;;;31.95;14.77;;;;;;;13.23;68.14;101882.97;5033246;28;20030;-72
2023/06/08 03:27:52;;;;;;;27.27;15.60;;;;;;;12.11;71.22;101900.88;5018373;28;20034;-71
2023/06/08 03:30:17;;;;;;;29.38;15.98;;;;;;;12.15;71.94;101902.50;5028019;28;20032;-72
2023/06/08 03:32:48;;;;;;;25.95;15.57;;;;;;;12.69;69.57;101887.03;5030661;28;20417;-73
2023/06/08 03:35:14;;;;;;;32.22;15.88;;;;;;;13.09;68.30;101887.09;5031590;28;20573;-73
2023/06/08 03:37:39;;;;;;;25.17;13.50;;;;;;;13.55;66.78;101875.38;4983455;28;20046;-72
2023/06/08 03:40:06;;;;;;;31.70;15.68;;;;;;;12.95;68.88;101894.81;5025494;28;20026;-74
2023/06/08 03:42:31;;;;;;;25.13;15.35;;;;;;;13.28;67.37;101881.00;5007794;28;20104;-71
2023/06/08 03:44:56;;;;;;;29.60;15.57;;;;;;;12.46;70.31;101893.28;5017111;28;20551;-71
2023/06/08 03:47:22;;;;;;;27.95;16.40;;;;;;;12.18;71.39;101891.75;5022976;28;20435;-71
2023/06/08 03:49:47;;;;;;;23.95;13.77;;;;;;;13.20;68.56;101880.44;5012002;28;20465;-71
2023/06/08 03:52:13;;;;;;;26.73;14.70;;;;;;;12.66;68.59;101875.69;5011001;28;20025;-72
2023/06/08 03:54:38;;;;;;;28.00;15.43;;;;;;;12.68;69.21;101893.25;5019567;28;20121;-72
2023/06/08 03:57:05;;;;;;;26.98;16.20;;;;;;;11.67;73.33;101897.19;5019700;28;20102;-72
2023/06/08 03:59:31;;;;;;;30.90;16.52;;;;;;;11.48;74.17;101898.81;5027102;28;20029;-72
2023/06/08 04:01:56;;;;;;;28.25;15.43;;;;;;;11.58;74.02;101892.22;5025356;28;20043;-72
2023/06/08 04:04:23;;;;;;;25.75;14.77;;;;;;;12.63;69.40;101881.13;5022844;28;20026;-72
2023/06/08 04:06:49;;;;;;;24.50;15.60;;;;;;;12.20;71.12;101895.22;5035660;28;20512;-73
2023/06/08 04:09:14;;;;;;;31.85;17.15;;;;;;;11.35;74.11;101906.31;5034847;28;20049;-73
2023/06/08 04:11:40;;;;;;;26.95;14.30;;;;;;;12.14;73.31;101906.06;4984335;28;20060;-73
2023/06/08 04:14:06;;;;;;;30.73;15.02;;;;;;;13.04;69.02;101902.38;4983001;28;20033;-71
2023/06/08 04:16:31;;;;;;;29.13;16.27;;;;;;;12.24;70.16;101891.50;4983018;28;20029;-73
2023/06/08 04:18:56;;;;;;;23.30;15.38;;;;;;;11.70;72.91;101895.34;4998904;28;20073;-73
2023/06/08 04:21:25;;;;;;;24.73;14.15;;;;;;;12.42;71.38;101891.69;4998598;28;20022;-73
2023/06/08 04:23:50;;;;;;;35.55;16.52;;;;;;;12.14;70.63;101900.75;4999182;28;20057;-73
2023/06/08 04:26:16;;;;;;;26.60;16.05;;;;;;;12.17;71.86;101890.03;4982331;28;20049;-72
2023/06/08 04:28:41;;;;;;;29.05;14.75;;;;;;;12.30;71.32;101893.06;4998274;28;20057;-71
2023/06/08 04:31:07;;;;;;;25.85;15.48;;;;;;;12.20;72.19;101889.06;5015110;28;20513;-75
2023/06/08 04:33:32;;;;;;;23.23;14.18;;;;;;;12.76;68.67;101882.34;4997116;28;20490;-75
2023/06/08 04:35:58;;;;;;;30.35;15.27;;;;;;;12.36;69.83;101878.66;4999460;28;20438;-72
2023/06/08 04:38:25;;;;;;;24.05;14.43;;;;;;;12.06;71.51;101892.25;5000356;28;20053;-73
2023/06/08 04:40:55;;;;;;;27.75;15.80;;;;;;;12.58;69.46;101889.28;5007637;28;20097;-72
2023/06/08 04:43:21;;;;;;;27.50;16.23;;;;;;;12.71;68.41;101897.59;5014750;28;20041;-73
2023/06/08 04:45:55;;;;;;;27.25;14.75;;;;;;;12.95;68.44;101890.38;5015857;28;20030;-73
2023/06/08 04:48:21;;;;;;;26.55;16.98;;;;;;;12.75;69.02;101895.66;5015069;28;20029;-73
2023/06/08 04:50:46;;;;;;;28.75;16.17;;;;;;;12.71;69.37;101889.63;5014750;28;20410;-72
2023/06/08 04:53:12;;;;;;;24.13;14.63;;;;;;;13.54;67.45;101884.31;4998906;28;20033;-72
2023/06/08 04:55:39;;;;;;;25.85;14.25;;;;;;;13.25;67.04;101889.97;5015132;28;20403;-72
2023/06/08 04:58:05;;;;;;;31.05;16.73;;;;;;;12.68;69.25;101890.59;4998490;28;20045;-73
2023/06/08 05:00:30;;;;;;;24.48;15.45;;;;;;;13.48;67.27;101876.59;5014944;28;20107;-72
2023/06/08 05:02:56;;;;;;;27.38;15.75;;;;;;;12.87;68.33;101881.00;4998365;28;20467;-73
2023/06/08 05:05:21;;;;;;;28.60;16.92;;;;;;;12.71;68.98;101889.63;5014869;28;20164;-73
2023/06/08 05:07:47;;;;;;;34.08;17.88;;;;;;;12.44;70.26;101881.88;5031739;28;20041;-73
2023/06/08 05:10:12;;;;;;;33.55;17.23;;;;;;;12.95;67.88;101878.88;5031291;28;20064;-73
2023/06/08 05:12:38;;;;;;;46.17;20.13;;;;;;;12.46;69.71;101889.78;5015871;28;20029;-73
2023/06/08 05:15:04;;;;;;;31.17;18.13;;;;;;;12.72;68.78;101886.06;4997524;28;20382;-73
2023/06/08 05:17:29;;;;;;;33.45;20.08;;;;;;;12.21;70.21;101890.78;5013924;28;20084;-71
2023/06/08 05:19:54;;;;;;;36.50;19.65;;;;;;;12.28;70.79;101889.63;5014689;28;20037;-72
2023/06/08 05:22:20;;;;;;;34.20;18.98;;;;;;;13.24;68.26;101882.03;4997598;28;20068;-73
2023/06/08 05:24:45;;;;;;;36.53;17.42;;;;;;;12.78;69.10;101877.81;5014134;28;20054;-72
2023/06/08 05:27:10;;;;;;;30.98;17.73;;;;;;;12.44;70.57;101881.88;5014414;28;20026;-73
2023/06/08 05:29:36;;;;;;;32.50;18.42;;;;;;;12.50;70.42;101881.66;5015091;28;20080;-73
2023/06/08 05:32:01;;;;;;;36.25;21.15;;;;;;;12.51;70.46;101880.72;5015202;28;20099;-73
2023/06/08 05:34:27;;;;;;;35.22;20.95;;;;;;;12.77;68.90;101876.09;4997538;28;20120;-73
2023/06/08 05:36:54;;;;;;;36.15;17.05;;;;;;;13.44;66.83;101877.69;5013973;28;20022;-74
2023/06/08 05:39:19;;;;;;;36.90;19.38;;;;;;;13.39;66.27;101870.75;5013069;28;20041;-74
2023/06/08 05:41:44;;;;;;;31.48;18.52;;;;;;;13.61;66.21;101864.47;5015194;28;20026;-74
2023/06/08 05:44:10;;;;;;;37.35;20.02;;;;;;;13.09;67.92;101873.81;5014884;28;20028;-73
2023/06/08 05:46:35;;;;;;;34.78;20.17;;;;;;;13.25;67.29;101878.44;5013717;28;20148;-74
2023/06/08 05:49:00;;;;;;;37.65;19.25;;;;;;;13.04;67.84;101878.47;4997570;28;20030;-73
2023/06/08 05:51:26;;;;;;;29.27;18.08;;;;;;;12.92;68.99;101871.94;5015507;28;20092;-72
2023/06/08 05:53:51;;;;;;;34.28;17.02;;;;;;;13.23;67.29;101875.88;5015605;28;20022;-73
2023/06/08 05:56:16;;;;;;;51.95;21.20;;;;;;;13.24;67.34;101877.59;5014950;28;20033;-72
2023/06/08 05:58:42;;;;;;;33.03;18.35;;;;;;;13.05;67.80;101869.56;5013920;28;20034;-74
2023/06/08 06:01:08;;;;;;;31.42;17.80;;;;;;;13.32;66.41;101866.66;5015676;28;20471;-72
2023/06/08 06:03:33;;;;;;;28.35;16.35;;;;;;;13.58;66.34;101875.25;5013759;28;20045;-72
2023/06/08 06:05:58;;;;;;;36.83;16.85;;;;;;;13.19;67.53;101868.09;5013519;28;20030;-73
2023/06/08 06:08:24;;;;;;;30.63;16.23;;;;;;;13.75;65.10;101876.25;5015104;28;20022;-72
2023/06/08 06:10:50;;;;;;;30.02;16.30;;;;;;;13.67;66.27;101874.81;4996972;28;20101;-74
2023/06/08 06:13:15;;;;;;;32.38;17.05;;;;;;;13.62;65.54;101881.28;5014292;28;20471;-73
2023/06/08 06:15:40;;;;;;;28.25;15.82;;;;;;;14.13;65.27;101873.59;4997292;28;20395;-73
2023/06/08 06:18:06;;;;;;;26.60;16.70;;;;;;;12.98;68.58;101876.09;5013455;28;20030;-73
2023/06/08 06:20:31;;;;;;;30.63;17.33;;;;;;;12.95;68.67;101877.09;5013824;28;20030;-73
2023/06/08 06:22:57;;;;;;;32.38;17.42;;;;;;;13.89;66.29;101879.13;5015570;28;20033;-74
2023/06/08 06:25:22;;;;;;;28.23;16.70;;;;;;;13.48;66.60;101879.25;5013111;28;20037;-74
2023/06/08 06:27:48;;;;;;;30.17;16.38;;;;;;;13.62;65.97;101876.84;5014078;28;20024;-72
2023/06/08 06:30:14;;;;;;;28.95;17.45;;;;;;;13.88;65.97;101892.50;5013762;28;20030;-73
2023/06/08 06:32:39;;;;;;;33.40;16.85;;;;;;;14.49;63.25;101899.31;5029676;28;20026;-73
2023/06/08 06:35:05;;;;;;;33.85;20.55;;;;;;;13.16;67.52;101884.19;4996759;28;20116;-73
2023/06/08 06:37:34;;;;;;;37.00;19.75;;;;;;;13.61;66.36;101896.38;5012803;28;20026;-71
2023/06/08 06:40:01;;;;;;;31.10;18.20;;;;;;;14.03;65.75;101886.47;5032878;28;20029;-71
2023/06/08 06:42:26;;;;;;;34.35;20.17;;;;;;;14.01;65.20;101880.34;5015881;28;20026;-71
2023/06/08 06:44:51;;;;;;;38.20;20.40;;;;;;;14.22;64.41;101891.75;5016358;28;20037;-71
2023/06/08 06:47:17;;;;;;;37.33;19.35;;;;;;;14.01;66.09;101888.31;5014927;28;20097;-71
2023/06/08 06:49:42;;;;;;;41.10;20.90;;;;;;;14.09;65.37;101891.47;5033176;28;20053;-71
2023/06/08 06:52:07;;;;;;;35.60;21.60;;;;;;;13.74;66.90;101880.72;5019309;28;20033;-71
2023/06/08 06:54:36;;;;;;;33.53;19.73;;;;;;;14.74;62.34;101871.47;5019697;28;20031;-72
2023/06/08 06:57:01;;;;;;;36.90;21.48;;;;;;;14.32;63.84;101880.66;5036342;28;20474;-71
2023/06/08 06:59:28;;;;;;;35.33;20.48;;;;;;;14.33;65.03;101891.22;5019576;28;20033;-71
2023/06/08 07:01:53;;;;;;;37.08;21.20;;;;;;;14.60;63.10;101884.59;5037435;28;20017;-70
2023/06/08 07:04:19;;;;;;;36.03;20.40;;;;;;;14.71;64.22;101892.94;5036223;28;20402;-71
2023/06/08 07:06:47;;;;;;;32.65;19.02;;;;;;;14.72;62.67;101878.69;5020077;28;20087;-71
2023/06/08 07:09:13;;;;;;;37.13;21.20;;;;;;;14.60;63.33;101884.59;5020019;28;20018;-70
2023/06/08 07:11:38;;;;;;;34.72;19.60;;;;;;;14.80;63.02;101884.50;5019659;28;20417;-72
2023/06/08 07:14:04;;;;;;;37.55;19.50;;;;;;;14.91;62.86;101864.44;5019287;28;20018;-72
2023/06/08 07:16:29;;;;;;;37.30;20.90;;;;;;;14.86;63.06;101873.53;5020260;28;20021;-72
2023/06/08 07:18:54;;;;;;;40.97;23.27;;;;;;;14.66;63.12;101881.63;5020276;28;20018;-72
2023/06/08 07:21:21;;;;;;;39.25;23.67;;;;;;;14.44;63.54;101888.03;5019684;28;20025;-71
2023/06/08 07:23:48;;;;;;;43.97;23.17;;;;;;;14.64;63.24;101888.84;5020020;28;20037;-72
2023/06/08 07:26:13;;;;;;;40.97;22.60;;;;;;;15.21;62.59;101879.75;5019470;28;20048;-71
2023/06/08 07:28:39;;;;;;;40.08;21.00;;;;;;;15.45;60.80;101858.91;5019315;28;20025;-72
2023/06/08 07:31:04;;;;;;;36.72;22.35;;;;;;;15.43;61.19;101874.16;5035804;28;20021;-71
2023/06/08 07:33:29;;;;;;;37.85;21.85;;;;;;;15.69;59.97;101875.41;5018826;28;20470;-71
2023/06/08 07:35:55;;;;;;;33.53;21.02;;;;;;;15.48;61.12;101876.53;5035514;28;20029;-71
2023/06/08 07:38:20;;;;;;;40.20;21.67;;;;;;;15.70;60.03;101879.78;5018799;28;20099;-70
2023/06/08 07:40:46;;;;;;;45.63;22.65;;;;;;;15.62;60.10;101882.00;5036783;28;20100;-71
2023/06/08 07:43:11;;;;;;;31.00;19.65;;;;;;;15.76;60.67;101891.06;5036679;28;20017;-72
2023/06/08 07:45:36;;;;;;;36.05;21.10;;;;;;;15.54;60.96;101885.09;5019051;28;20043;-71
2023/06/08 07:48:02;;;;;;;34.33;20.67;;;;;;;15.82;59.80;101886.22;5036903;28;20025;-71
2023/06/08 07:50:27;;;;;;;40.85;20.13;;;;;;;15.63;60.16;101883.75;5002864;28;20075;-71
2023/06/08 07:52:52;;;;;;;31.63;20.55;;;;;;;15.91;60.03;101889.41;5035717;28;20035;-72
2023/06/08 07:55:18;;;;;;;31.67;19.65;;;;;;;16.01;59.58;101874.59;5002601;28;20493;-71
2023/06/08 07:57:44;;;;;;;27.38;17.75;;;;;;;16.22;59.69;101877.81;5018983;28;20378;-71
2023/06/08 08:00:10;;;;;;;33.35;19.75;;;;;;;16.53;58.15;101873.38;5035201;28;20040;-71
2023/06/08 08:02:35;;;;;;;28.67;19.67;;;;;;;16.67;57.53;101867.22;5017796;28;20025;-72
2023/06/08 08:05:01;;;;;;;41.65;19.83;;;;;;;16.53;57.92;101870.72;5018508;28;20147;-71
2023/06/08 08:07:26;;;;;;;30.65;19.77;;;;;;;16.28;59.15;101869.44;5018341;28;20397;-70
2023/06/08 08:09:51;;;;;;;32.78;19.55;;;;;;;16.30;59.35;101864.91;5018241;28;20072;-71
2023/06/08 08:12:17;;;;;;;32.47;19.75;;;;;;;16.53;58.64;101864.50;5034789;28;20036;-72
2023/06/08 08:14:42;;;;;;;35.13;19.15;;;;;;;16.65;58.64;101863.75;5018049;28;20065;-71
2023/06/08 08:17:07;;;;;;;32.75;19.83;;;;;;;16.29;59.14;101860.53;5001878;28;20028;-72
2023/06/08 08:19:33;;;;;;;30.83;17.80;;;;;;;17.24;57.13;101864.75;5017873;28;20022;-71
2023/06/08 08:21:58;;;;;;;35.00;18.77;;;;;;;17.13;56.45;101862.75;5018120;28;20101;-71
2023/06/08 08:24:23;;;;;;;34.85;18.35;;;;;;;17.15;56.89;101856.38;5017767;28;20029;-70
2023/06/08 08:26:53;;;;;;;26.88;17.70;;;;;;;17.49;55.44;101856.91;5035743;28;20029;-71
2023/06/08 08:29:18;;;;;;;27.98;18.02;;;;;;;17.70;55.55;101855.66;5018448;28;20223;-71
2023/06/08 08:31:43;;;;;;;29.15;18.42;;;;;;;17.37;56.99;101851.47;5018309;28;20503;-70
2023/06/08 08:34:11;;;;;;;26.58;16.90;;;;;;;17.47;56.58;101848.13;5035530;28;20083;-69
2023/06/08 08:36:37;;;;;;;24.20;16.77;;;;;;;17.66;56.16;101840.75;5018579;28;20066;-71
2023/06/08 08:39:03;;;;;;;31.35;16.42;;;;;;;18.15;54.32;101844.75;5018043;28;20435;-71
2023/06/08 08:41:29;;;;;;;29.42;17.02;;;;;;;18.31;54.61;101845.44;5036394;28;20413;-70
2023/06/08 08:44:01;;;;;;;28.48;16.15;;;;;;;18.80;52.44;101835.88;5018329;28;20013;-72
2023/06/08 08:46:33;;;;;;;28.85;15.98;;;;;;;18.08;54.41;101840.78;5018384;28;20033;-71
2023/06/08 08:49:00;;;;;;;28.45;17.55;;;;;;;18.08;54.40;101824.69;5018741;28;20017;-71
2023/06/08 08:51:28;;;;;;;32.03;16.85;;;;;;;18.76;53.33;101834.38;5018001;28;20068;-71
2023/06/08 08:53:55;;;;;;;25.75;15.82;;;;;;;19.07;52.57;101836.78;5018269;28;20025;-72
2023/06/08 08:56:21;;;;;;;31.23;17.23;;;;;;;19.35;51.01;101835.69;5018466;28;20382;-70
2023/06/08 08:58:48;;;;;;;22.88;15.25;;;;;;;19.59;50.99;101829.50;5017288;28;20677;-70
2023/06/08 09:01:14;;;;;;;23.80;14.18;;;;;;;19.64;50.95;101838.09;5001379;28;20378;-71
2023/06/08 09:03:39;;;;;;;23.58;14.88;;;;;;;19.64;50.71;101829.19;5017823;28;20025;-72
2023/06/08 09:06:06;;;;;;;22.17;13.40;;;;;;;19.36;51.89;101839.25;5035387;28;20033;-71
2023/06/08 09:08:31;;;;;;;24.92;14.05;;;;;;;19.36;50.88;101832.03;5017715;28;20092;-70
2023/06/08 09:11:06;;;;;;;22.70;14.43;;;;;;;19.36;51.83;101831.19;5001450;28;20025;-71
2023/06/08 09:13:33;;;;;;;28.30;14.25;;;;;;;19.22;52.09;101824.97;5016486;28;20143;-70
2023/06/08 09:16:09;;;;;;;26.23;15.27;;;;;;;19.03;51.68;101833.47;5000959;28;20036;-71
2023/06/08 09:18:35;;;;;;;24.60;13.55;;;;;;;19.78;50.69;101820.97;5035140;28;20036;-70
2023/06/08 09:21:27;;;;;;;21.35;13.75;;;;;;;20.03;49.95;101818.34;5035017;28;20025;-71
2023/06/08 09:26:50;;;;;;;27.33;13.60;;;;;;;20.15;49.60;101828.16;5035315;28;20367;-71
2023/06/08 09:29:44;;;;;;;20.75;12.48;;;;;;;20.68;47.72;101814.25;5017599;28;20564;-71
2023/06/08 09:32:16;;;;;;;21.45;12.98;;;;;;;20.27;48.95;101815.63;5004564;28;20038;-71
2023/06/08 09:35:07;;;;;;;21.45;13.25;;;;;;;20.42;48.48;101818.13;5001321;28;20028;-71
2023/06/08 09:37:36;;;;;;;19.67;12.10;;;;;;;20.56;47.28;101809.84;5013698;28;20033;-70
2023/06/08 09:40:07;;;;;;;22.52;12.32;;;;;;;20.40;48.79;101818.22;5017425;28;20021;-71
2023/06/08 09:42:46;;;;;;;25.10;12.60;;;;;;;20.63;48.52;101813.78;5018017;28;20025;-70
2023/06/08 09:45:13;;;;;;;17.67;12.25;;;;;;;20.99;48.38;101804.81;5000603;28;20040;-72
2023/06/08 09:47:38;;;;;;;24.27;12.32;;;;;;;21.04;46.49;101811.53;5016938;28;20029;-72
2023/06/08 09:50:07;;;;;;;21.73;11.38;;;;;;;21.00;47.54;101801.16;5034378;28;20047;-72
2023/06/08 09:52:33;;;;;;;17.67;10.32;;;;;;;21.16;46.72;101804.31;5000889;28;20048;-71
2023/06/08 09:54:59;;;;;;;22.77;9.60;;;;;;;21.76;45.49;101809.41;5016391;28;20017;-71
2023/06/08 09:57:27;;;;;;;17.35;10.82;;;;;;;21.93;44.82;101805.31;5016547;28;20143;-72
2023/06/08 09:59:54;;;;;;;19.52;11.38;;;;;;;21.66;45.56;101803.09;5016743;28;20424;-72
2023/06/08 10:02:41;;;;;;;15.43;9.35;;;;;;;21.97;44.90;101800.53;5016192;28;20112;-71
2023/06/08 10:05:13;;;;;;;16.83;9.07;;;;;;;22.00;44.47;101797.56;5016249;28;20018;-71
2023/06/08 10:07:42;;;;;;;18.42;9.80;;;;;;;21.71;44.40;101795.47;5016086;28;20032;-71
2023/06/08 10:10:14;;;;;;;17.95;9.75;;;;;;;22.52;43.83;101791.47;5016284;28;20029;-71
2023/06/08 10:12:40;;;;;;;17.85;10.55;;;;;;;22.48;42.87;101792.75;5016618;28;20033;-71
2023/06/08 10:15:06;;;;;;;15.38;8.88;;;;;;;22.59;42.63;101794.50;5016680;28;20028;-71
2023/06/08 10:17:32;;;;;;;16.52;9.43;;;;;;;22.34;43.07;101781.22;5016172;28;20021;-71
2023/06/08 10:19:58;;;;;;;13.50;9.07;;;;;;;22.35;42.97;101782.09;5034122;28;20703;-72
2023/06/08 10:22:24;;;;;;;19.58;9.45;;;;;;;22.24;43.29;101786.56;5033763;28;20044;-71
2023/06/08 10:24:50;;;;;;;16.58;9.25;;;;;;;22.63;42.33;101769.84;5015611;28;20018;-72
2023/06/08 10:27:29;;;;;;;15.07;9.55;;;;;;;22.37;43.27;101772.03;5016197;28;20075;-71
2023/06/08 10:29:55;;;;;;;18.42;9.40;;;;;;;23.00;41.95;101771.16;5016691;28;20060;-72
2023/06/08 10:32:31;;;;;;;17.42;9.20;;;;;;;23.00;41.93;101771.97;5015758;28;20025;-71
2023/06/08 10:34:58;;;;;;;18.63;9.05;;;;;;;22.95;42.21;101768.84;5033766;28;20429;-72
2023/06/08 10:37:35;;;;;;;17.20;8.48;;;;;;;22.98;41.84;101770.44;5015850;28;20032;-70
2023/06/08 10:40:07;;;;;;;18.63;8.05;;;;;;;23.39;40.68;101763.19;5016115;28;20486;-71
2023/06/08 10:42:33;;;;;;;15.35;7.95;;;;;;;23.04;41.39;101760.91;5015696;28;20386;-72
2023/06/08 10:44:59;;;;;;;13.02;7.53;;;;;;;23.94;39.13;101758.28;5033139;28;20014;-71
2023/06/08 10:47:31;;;;;;;14.00;8.27;;;;;;;23.56;40.28;101761.66;5015499;28;20044;-71
2023/06/08 10:50:00;;;;;;;15.43;8.50;;;;;;;23.54;39.46;101758.25;5016329;28;20025;-71
2023/06/08 10:52:26;;;;;;;13.30;7.03;;;;;;;23.78;39.95;101756.16;5015785;28;20025;-71
2023/06/08 10:54:59;;;;;;;13.73;7.35;;;;;;;23.88;39.25;101755.16;5015774;28;20113;-71
2023/06/08 10:57:36;;;;;;;11.70;6.05;;;;;;;23.73;39.22;101759.25;5033585;28;20025;-70
2023/06/08 11:00:09;;;;;;;16.42;7.03;;;;;;;23.10;40.93;101758.53;5015508;28;20041;-71
2023/06/08 11:02:35;;;;;;;13.90;6.03;;;;;;;24.11;38.58;101743.22;5015066;28;20385;-71
2023/06/08 11:05:00;;;;;;;14.50;7.05;;;;;;;24.25;38.82;101747.31;5015431;28;20025;-71
2023/06/08 11:07:25;;;;;;;11.48;6.13;;;;;;;23.85;39.67;101752.72;5033751;28;20029;-71
2023/06/08 11:09:51;;;;;;;10.35;5.35;;;;;;;23.92;39.39;101742.19;5033006;28;20029;-71
2023/06/08 11:12:16;;;;;;;9.18;5.15;;;;;;;23.95;39.18;101741.91;5015669;28;20076;-72
2023/06/08 11:14:42;;;;;;;14.18;5.68;;;;;;;24.30;38.39;101734.22;5031864;28;20474;-72